Time;durP1;ratioP1;P1;durP2;ratioP2;P2;SDS_P1;SDS_P2;PMS_P1;PMS_P2;Temp;Humidity;BMP_temperature;BMP_pressure;BME280_temperature;BME280_humidity;BME280_pressure;Samples;Min_cycle;Max_cycle;Signal;HPM_P1;HPM_P2
2023/09/14 00:01:15;;;;;;;1.30;1.20;;;;;;;14.85;64.87;101965.84;4900430;28;97064;-54
2023/09/14 00:03:41;;;;;;;3.90;1.20;;;;;;;14.84;64.78;101954.00;4898853;28;96674;-54
2023/09/14 00:06:06;;;;;;;2.60;1.30;;;;;;;14.82;64.73;101950.97;4900358;28;97298;-54
2023/09/14 00:08:31;;;;;;;1.40;1.10;;;;;;;14.80;64.89;101953.47;4899349;28;97194;-54
2023/09/14 00:11:00;;;;;;;2.50;1.30;;;;;;;14.79;64.87;101959.47;4898622;28;97220;-54
2023/09/14 00:13:25;;;;;;;3.37;1.30;;;;;;;14.75;64.88;101954.16;4899238;28;96999;-54
2023/09/14 00:15:51;;;;;;;3.37;1.30;;;;;;;14.74;64.89;101954.66;4899268;28;97103;-54
2023/09/14 00:18:16;;;;;;;2.00;0.90;;;;;;;14.70;64.84;101960.41;4901699;28;96940;-54
2023/09/14 00:20:42;;;;;;;3.10;1.10;;;;;;;14.69;64.72;101953.38;4902165;28;97692;-54
2023/09/14 00:23:07;;;;;;;3.93;1.70;;;;;;;14.66;64.66;101950.78;4899149;28;97228;-54
2023/09/14 00:25:32;;;;;;;3.80;1.20;;;;;;;14.63;64.66;101952.56;4899044;28;96836;-54
2023/09/14 00:27:58;;;;;;;3.10;1.40;;;;;;;14.60;64.79;101956.28;4899417;28;97168;-54
2023/09/14 00:30:23;;;;;;;1.37;1.10;;;;;;;14.58;64.89;101950.47;4900823;28;97162;-54
2023/09/14 00:32:52;;;;;;;2.07;1.20;;;;;;;14.56;64.71;101955.75;4899843;28;96723;-54
2023/09/14 00:35:20;;;;;;;2.20;1.23;;;;;;;14.56;64.91;101958.53;4901290;28;97215;-54
2023/09/14 00:37:46;;;;;;;6.80;1.30;;;;;;;14.56;64.72;101957.75;4897574;28;97447;-54
2023/09/14 00:40:13;;;;;;;1.57;1.20;;;;;;;14.55;65.00;101959.75;4897745;28;97325;-54
2023/09/14 00:42:51;;;;;;;2.80;1.30;;;;;;;14.54;64.82;101954.72;4898897;28;97228;-54
2023/09/14 00:45:19;;;;;;;4.87;0.97;;;;;;;14.51;64.82;101967.53;4898354;28;97519;-54
2023/09/14 00:47:46;;;;;;;2.97;1.03;;;;;;;14.49;64.70;101966.47;4897974;28;97532;-54
2023/09/14 00:50:17;;;;;;;2.43;1.17;;;;;;;14.45;64.74;101966.72;4898103;28;97551;-54
2023/09/14 00:52:45;;;;;;;2.07;1.00;;;;;;;14.41;64.64;101966.16;4898528;28;96998;-54
2023/09/14 00:55:19;;;;;;;1.67;0.83;;;;;;;14.37;64.51;101975.94;4897712;28;97217;-54
2023/09/14 00:57:48;;;;;;;2.60;0.90;;;;;;;14.33;64.69;101976.13;4898068;28;97474;-54
2023/09/14 01:00:14;;;;;;;2.43;0.83;;;;;;;14.27;64.56;101972.50;4902234;28;96793;-54
2023/09/14 01:02:40;;;;;;;3.73;1.30;;;;;;;14.26;64.61;101979.31;4900738;28;97688;-54
2023/09/14 01:05:07;;;;;;;4.60;1.27;;;;;;;14.23;64.58;101980.28;4897757;28;96939;-54
2023/09/14 01:07:34;;;;;;;3.57;0.90;;;;;;;14.22;64.47;101973.97;4902014;28;97364;-54
2023/09/14 01:09:59;;;;;;;2.03;1.00;;;;;;;14.22;64.51;101984.28;4902579;28;97352;-54
2023/09/14 01:12:26;;;;;;;1.40;1.00;;;;;;;14.19;64.47;101974.19;4898153;28;97138;-54
2023/09/14 01:14:54;;;;;;;2.47;1.13;;;;;;;14.16;64.62;101966.84;4901797;28;97388;-54
2023/09/14 01:17:41;;;;;;;4.73;1.20;;;;;;;14.09;64.38;101965.25;4898319;28;97458;-54
2023/09/14 01:20:21;;;;;;;1.50;1.20;;;;;;;14.07;64.43;101975.28;4897110;28;97283;-54
2023/09/14 01:23:23;;;;;;;1.73;1.10;;;;;;;14.03;64.39;101969.19;4899883;28;96765;-53
2023/09/14 01:25:49;;;;;;;2.27;1.20;;;;;;;13.99;64.51;101980.47;4895971;28;97096;-53
2023/09/14 01:28:14;;;;;;;1.33;1.10;;;;;;;13.99;64.42;101976.94;4893686;28;97091;-53
2023/09/14 01:30:46;;;;;;;4.63;1.03;;;;;;;13.96;64.36;101981.44;4899365;28;97184;-53
2023/09/14 01:33:17;;;;;;;1.73;1.07;;;;;;;13.93;64.35;101981.66;4895872;28;97141;-53
2023/09/14 01:35:45;;;;;;;3.00;1.37;;;;;;;13.91;64.29;101981.38;4899132;28;97146;-53
2023/09/14 01:38:12;;;;;;;2.80;1.23;;;;;;;13.86;64.36;101987.59;4899533;28;97287;-53
2023/09/14 01:40:38;;;;;;;2.10;1.17;;;;;;;13.82;64.17;101984.25;4895727;28;97215;-53
2023/09/14 01:43:06;;;;;;;2.97;1.30;;;;;;;13.79;64.60;101990.75;4897975;28;96774;-53
2023/09/14 01:45:33;;;;;;;2.07;1.30;;;;;;;13.77;64.57;101998.78;4895246;28;97538;-53
2023/09/14 01:48:00;;;;;;;1.60;1.30;;;;;;;13.76;64.36;101995.25;4896532;28;98623;-54
2023/09/14 01:50:25;;;;;;;2.80;1.20;;;;;;;13.74;64.42;101992.19;4898824;28;98295;-54
2023/09/14 01:52:52;;;;;;;4.47;1.17;;;;;;;13.71;64.53;101990.41;4899536;28;97072;-54
2023/09/14 01:55:18;;;;;;;2.47;1.10;;;;;;;13.69;64.40;101983.81;4897747;28;97225;-54
2023/09/14 01:57:43;;;;;;;3.73;1.30;;;;;;;13.68;64.31;101993.34;4899995;28;97065;-54
2023/09/14 02:00:09;;;;;;;1.57;1.30;;;;;;;13.65;64.36;101986.78;4899273;28;97244;-54
2023/09/14 02:02:34;;;;;;;0.93;0.83;;;;;;;13.65;64.52;101981.25;4896268;28;96648;-54
2023/09/14 02:05:00;;;;;;;1.93;1.00;;;;;;;13.66;64.55;101979.25;4895518;28;97153;-54
2023/09/14 02:07:25;;;;;;;1.77;1.17;;;;;;;13.65;64.51;102016.47;4899013;28;96866;-54
2023/09/14 02:09:51;;;;;;;1.30;0.90;;;;;;;13.62;64.49;101987.75;4908728;28;96743;-55
2023/09/14 02:12:17;;;;;;;2.00;1.03;;;;;;;13.63;64.26;101991.28;4899328;28;97545;-54
2023/09/14 02:14:42;;;;;;;2.83;1.00;;;;;;;13.61;64.32;101982.72;4899073;28;96824;-54
2023/09/14 02:17:08;;;;;;;1.53;0.80;;;;;;;13.59;64.48;101983.19;4897945;28;96808;-54
2023/09/14 02:19:33;;;;;;;1.23;1.00;;;;;;;13.58;64.31;101986.44;4900432;28;98600;-54
2023/09/14 02:21:58;;;;;;;2.00;0.93;;;;;;;13.53;64.33;101994.16;4903459;28;96901;-54
2023/09/14 02:24:24;;;;;;;2.10;1.07;;;;;;;13.53;64.31;101985.09;4903271;28;97377;-54
2023/09/14 02:26:51;;;;;;;1.07;1.07;;;;;;;13.49;64.40;101981.78;4900472;28;97251;-54
2023/09/14 02:29:16;;;;;;;1.30;1.00;;;;;;;13.46;64.10;101977.19;4901437;28;96740;-54
2023/09/14 02:31:42;;;;;;;0.80;0.70;;;;;;;13.42;64.15;101982.94;4901320;28;97158;-54
2023/09/14 02:34:07;;;;;;;1.73;1.00;;;;;;;13.39;64.16;101978.34;4898901;28;96663;-54
2023/09/14 02:36:33;;;;;;;5.57;1.40;;;;;;;13.34;64.08;101979.06;4900908;28;97017;-54
2023/09/14 02:38:58;;;;;;;1.33;0.90;;;;;;;13.32;64.19;101992.56;4898806;28;97343;-54
2023/09/14 02:41:24;;;;;;;4.20;1.07;;;;;;;13.30;64.11;101988.78;4906006;28;97145;-54
2023/09/14 02:43:49;;;;;;;1.67;0.90;;;;;;;13.29;64.22;101990.00;4901856;28;96648;-53
2023/09/14 02:46:15;;;;;;;2.30;1.30;;;;;;;13.26;64.21;101990.94;4899953;28;97363;-54
2023/09/14 02:48:43;;;;;;;2.00;0.97;;;;;;;13.25;64.30;101989.44;4902624;28;97188;-54
2023/09/14 02:51:08;;;;;;;0.80;0.80;;;;;;;13.24;64.29;101994.19;4900690;28;96957;-54
2023/09/14 02:53:34;;;;;;;0.80;0.70;;;;;;;13.24;64.46;101994.19;4900141;28;97099;-54
2023/09/14 02:55:59;;;;;;;0.77;0.77;;;;;;;13.24;64.14;102001.72;4905414;28;101965;-54
2023/09/14 02:58:24;;;;;;;1.17;0.93;;;;;;;13.23;64.22;102001.00;4905537;28;96530;-54
2023/09/14 03:00:49;;;;;;;1.07;0.97;;;;;;;13.21;64.33;102006.22;4901032;28;97307;-54
2023/09/14 03:03:15;;;;;;;1.17;0.90;;;;;;;13.18;63.99;102004.41;4898786;28;106684;-54
2023/09/14 03:05:40;;;;;;;2.73;1.30;;;;;;;13.14;64.08;102001.09;4905298;28;97252;-54
2023/09/14 03:08:06;;;;;;;1.10;0.73;;;;;;;13.10;64.13;102013.56;4899418;28;97134;-54
2023/09/14 03:10:31;;;;;;;1.67;0.90;;;;;;;13.06;64.18;102002.69;4899117;28;96993;-53
2023/09/14 03:12:56;;;;;;;1.27;1.17;;;;;;;13.05;63.98;102008.69;4895252;28;96915;-53
2023/09/14 03:15:22;;;;;;;1.20;1.10;;;;;;;12.99;63.98;102008.59;4900382;28;97413;-54
2023/09/14 03:17:47;;;;;;;3.90;1.20;;;;;;;12.95;63.96;102005.25;4901149;28;96701;-53
2023/09/14 03:20:13;;;;;;;3.10;1.10;;;;;;;12.91;64.00;102010.19;4901214;28;97025;-53
2023/09/14 03:22:39;;;;;;;1.17;1.10;;;;;;;12.88;64.02;102000.09;4899156;28;96861;-53
2023/09/14 03:25:05;;;;;;;1.03;0.90;;;;;;;12.86;64.00;102007.31;4902483;28;98413;-53
2023/09/14 03:27:30;;;;;;;0.90;0.70;;;;;;;12.86;64.13;102013.63;4902146;28;97208;-53
2023/09/14 03:29:55;;;;;;;1.77;1.20;;;;;;;12.82;64.25;102012.28;4902219;28;97593;-53
2023/09/14 03:32:21;;;;;;;1.97;1.33;;;;;;;12.79;64.06;102022.28;4899729;28;97151;-53
2023/09/14 03:34:46;;;;;;;1.20;0.70;;;;;;;12.77;64.12;102025.50;4900055;28;97359;-53
2023/09/14 03:37:12;;;;;;;1.43;0.93;;;;;;;12.75;64.00;102018.94;4898674;28;112476;-53
2023/09/14 03:39:37;;;;;;;1.03;1.00;;;;;;;12.73;64.16;102021.41;4907981;28;96822;-54
2023/09/14 03:42:03;;;;;;;2.00;0.90;;;;;;;12.73;64.06;102021.41;4899477;28;97193;-53
2023/09/14 03:44:29;;;;;;;1.27;1.00;;;;;;;12.70;64.09;102017.59;4900559;28;97367;-54
2023/09/14 03:46:54;;;;;;;2.60;0.87;;;;;;;12.67;64.05;102015.00;4900638;28;97727;-54
2023/09/14 03:49:20;;;;;;;1.03;0.93;;;;;;;12.68;63.97;102016.53;4903553;28;96877;-54
2023/09/14 03:51:45;;;;;;;1.60;0.90;;;;;;;12.67;64.07;102013.00;4895825;28;97257;-54
2023/09/14 03:54:11;;;;;;;1.90;0.87;;;;;;;12.66;64.15;102016.25;4895254;28;97103;-54
2023/09/14 03:56:37;;;;;;;0.77;0.77;;;;;;;12.65;64.19;102017.47;4902660;28;97178;-55
2023/09/14 03:59:03;;;;;;;0.87;0.60;;;;;;;12.60;64.15;102016.13;4904259;28;96702;-54
2023/09/14 04:01:28;;;;;;;0.97;0.87;;;;;;;12.64;63.96;102013.22;4898877;28;97335;-54
2023/09/14 04:03:54;;;;;;;1.57;0.97;;;;;;;12.66;64.02;102016.25;4900447;28;97066;-54
2023/09/14 04:06:19;;;;;;;2.70;0.97;;;;;;;12.66;64.07;102024.53;4897963;28;97161;-55
2023/09/14 04:08:44;;;;;;;1.33;0.80;;;;;;;12.67;64.20;102026.81;4888647;28;96943;-54
2023/09/14 04:11:10;;;;;;;0.87;0.70;;;;;;;12.64;64.24;102018.72;4899048;28;97076;-54
2023/09/14 04:13:36;;;;;;;1.27;0.83;;;;;;;12.66;64.26;102030.06;4897498;28;97340;-53
2023/09/14 04:16:03;;;;;;;0.80;0.80;;;;;;;12.63;64.16;102025.47;4897101;28;97620;-54
2023/09/14 04:18:33;;;;;;;0.93;0.80;;;;;;;12.62;63.97;102029.47;4896434;28;97107;-54
2023/09/14 04:20:59;;;;;;;1.13;1.00;;;;;;;12.60;64.01;102029.19;4899181;28;96731;-54
2023/09/14 04:23:24;;;;;;;1.80;1.10;;;;;;;12.60;64.12;102031.97;4897827;28;97969;-54
2023/09/14 04:25:49;;;;;;;1.20;1.00;;;;;;;12.58;64.17;102037.19;4902695;28;97166;-54
2023/09/14 04:28:16;;;;;;;1.20;0.90;;;;;;;12.55;64.01;102027.84;4901796;28;96655;-55
2023/09/14 04:30:51;;;;;;;2.40;1.20;;;;;;;12.58;63.94;102028.91;4898921;28;97497;-54
2023/09/14 04:33:17;;;;;;;1.57;0.90;;;;;;;12.58;64.23;102037.19;4901892;28;97532;-54
2023/09/14 04:35:43;;;;;;;2.10;0.80;;;;;;;12.53;64.14;102043.34;4898999;28;96786;-54
2023/09/14 04:38:08;;;;;;;1.80;1.30;;;;;;;12.54;64.19;102042.88;4899815;28;96797;-54
2023/09/14 04:40:40;;;;;;;1.57;1.40;;;;;;;12.54;64.25;102040.13;4899041;28;97241;-54
2023/09/14 04:43:05;;;;;;;2.20;1.10;;;;;;;12.54;64.23;102045.63;4902210;28;97144;-55
2023/09/14 04:45:31;;;;;;;2.47;1.30;;;;;;;12.49;64.25;102045.53;4897913;28;97111;-54
2023/09/14 04:47:57;;;;;;;1.37;1.20;;;;;;;12.45;64.16;102048.47;4896893;28;97386;-54
2023/09/14 04:50:23;;;;;;;1.23;1.13;;;;;;;12.43;64.08;102044.63;4905628;28;96996;-54
2023/09/14 04:52:48;;;;;;;1.27;1.00;;;;;;;12.39;64.26;102033.78;4897828;28;97395;-54
2023/09/14 04:55:14;;;;;;;1.10;1.00;;;;;;;12.39;64.12;102042.06;4898845;28;96851;-54
2023/09/14 04:57:39;;;;;;;0.83;0.73;;;;;;;12.40;64.25;102040.06;4900225;28;97046;-54
2023/09/14 05:00:05;;;;;;;1.00;1.00;;;;;;;12.41;64.12;102052.63;4899893;28;97457;-54
2023/09/14 05:02:31;;;;;;;1.23;1.13;;;;;;;12.41;64.08;102049.88;4907004;28;97971;-54
2023/09/14 05:04:58;;;;;;;2.70;1.30;;;;;;;12.37;64.13;102052.81;4901911;28;97130;-54
2023/09/14 05:07:23;;;;;;;1.10;1.00;;;;;;;12.37;64.26;102052.03;4898461;28;97075;-54
2023/09/14 05:09:48;;;;;;;0.80;0.80;;;;;;;12.34;64.18;102051.00;4900090;28;97649;-53
2023/09/14 05:12:14;;;;;;;1.03;0.97;;;;;;;12.33;64.18;102055.00;4900988;28;111722;-54
2023/09/14 05:14:39;;;;;;;0.73;0.73;;;;;;;12.30;64.08;102061.44;4898678;28;97795;-54
2023/09/14 05:17:05;;;;;;;0.77;0.77;;;;;;;12.31;63.96;102057.47;4900902;28;96675;-54
2023/09/14 05:19:30;;;;;;;0.70;0.70;;;;;;;12.28;63.81;102058.41;4901613;28;97103;-53
2023/09/14 05:21:55;;;;;;;0.70;0.60;;;;;;;12.29;63.95;102068.22;4899914;28;97327;-54
2023/09/14 05:24:21;;;;;;;0.80;0.80;;;;;;;12.30;64.10;102063.44;4898604;28;97175;-53
2023/09/14 05:26:47;;;;;;;1.53;0.60;;;;;;;12.29;64.26;102064.69;4899845;28;97149;-53
2023/09/14 05:29:13;;;;;;;1.30;0.90;;;;;;;12.28;64.04;102074.94;4898121;28;97316;-54
2023/09/14 05:31:38;;;;;;;0.80;0.80;;;;;;;12.28;64.18;102080.47;4899354;28;97228;-54
2023/09/14 05:34:06;;;;;;;1.20;0.90;;;;;;;12.29;64.21;102067.44;4898606;28;97596;-54
2023/09/14 05:36:31;;;;;;;1.87;0.77;;;;;;;12.29;64.28;102068.22;4903019;28;97172;-54
2023/09/14 05:38:56;;;;;;;0.90;0.70;;;;;;;12.30;64.03;102080.00;4901007;28;96966;-54
2023/09/14 05:41:22;;;;;;;2.20;1.10;;;;;;;12.30;64.21;102083.53;4896889;28;111669;-54
2023/09/14 05:43:47;;;;;;;0.70;0.70;;;;;;;12.30;64.27;102080.00;4899261;28;98431;-54
2023/09/14 05:46:12;;;;;;;1.23;0.90;;;;;;;12.28;64.11;102086.00;4901811;28;96960;-55
2023/09/14 05:48:38;;;;;;;1.23;0.90;;;;;;;12.27;64.20;102083.72;4900942;28;98400;-54
2023/09/14 05:51:03;;;;;;;0.90;0.77;;;;;;;12.27;64.15;102090.00;4896379;28;98012;-54
2023/09/14 05:53:28;;;;;;;0.60;0.60;;;;;;;12.28;64.22;102091.50;4897568;28;96810;-55
2023/09/14 05:55:54;;;;;;;0.90;0.50;;;;;;;12.31;64.06;102092.56;4897550;28;97120;-54
2023/09/14 05:58:20;;;;;;;5.20;0.80;;;;;;;12.32;64.12;102092.09;4901415;28;97332;-54
2023/09/14 06:00:46;;;;;;;0.70;0.70;;;;;;;12.32;64.07;102091.34;4897893;28;97313;-53
2023/09/14 06:03:13;;;;;;;0.80;0.80;;;;;;;12.33;64.06;102099.16;4898832;28;97353;-54
2023/09/14 06:05:38;;;;;;;0.97;0.67;;;;;;;12.35;64.17;102101.44;4896549;28;97144;-54
2023/09/14 06:08:04;;;;;;;1.40;0.80;;;;;;;12.38;64.37;102103.28;4898787;28;97312;-54
2023/09/14 06:10:29;;;;;;;2.70;1.27;;;;;;;12.43;64.30;102103.38;4898133;28;97372;-54
2023/09/14 06:12:55;;;;;;;0.90;0.70;;;;;;;12.48;64.40;102105.50;4899081;28;97561;-54
2023/09/14 06:15:20;;;;;;;0.70;0.60;;;;;;;12.51;64.29;102109.31;4899344;28;97368;-54
2023/09/14 06:17:47;;;;;;;1.27;0.70;;;;;;;12.51;64.13;102103.78;4898041;28;96711;-54
2023/09/14 06:20:12;;;;;;;1.30;1.00;;;;;;;12.57;64.38;102105.44;4898296;28;98550;-54
2023/09/14 06:22:39;;;;;;;0.63;0.63;;;;;;;12.60;64.34;102110.00;4898162;28;97101;-54
2023/09/14 06:25:05;;;;;;;5.13;0.80;;;;;;;12.65;64.58;102103.84;4897371;28;96984;-54
2023/09/14 06:27:31;;;;;;;0.70;0.70;;;;;;;12.71;64.62;102104.72;4897514;28;96913;-54
2023/09/14 06:29:56;;;;;;;1.40;1.07;;;;;;;12.78;64.57;102111.88;4898853;28;96816;-53
2023/09/14 06:32:21;;;;;;;0.70;0.70;;;;;;;12.85;64.57;102121.78;4896215;28;106096;-54
2023/09/14 06:34:47;;;;;;;2.50;1.10;;;;;;;12.89;64.56;102114.13;4897787;28;97191;-55
2023/09/14 06:37:13;;;;;;;1.20;0.90;;;;;;;12.97;64.67;102115.28;4899287;28;96761;-54
2023/09/14 06:39:38;;;;;;;4.80;0.93;;;;;;;13.04;64.74;102121.19;4897679;28;97915;-54
2023/09/14 06:42:04;;;;;;;1.90;1.00;;;;;;;13.10;64.63;102119.34;4898525;28;96843;-54
2023/09/14 06:44:30;;;;;;;1.53;1.27;;;;;;;13.16;64.80;102122.19;4897178;28;96944;-54
2023/09/14 06:46:55;;;;;;;1.67;1.00;;;;;;;13.21;64.60;102118.78;4896932;28;97354;-54
2023/09/14 06:49:21;;;;;;;6.30;1.00;;;;;;;13.24;64.71;102118.56;4896923;28;97067;-55
2023/09/14 06:51:47;;;;;;;2.33;1.03;;;;;;;13.29;64.99;102125.44;4897043;28;97575;-54
2023/09/14 06:54:12;;;;;;;1.37;1.27;;;;;;;13.33;64.86;102118.50;4898627;28;96759;-54
2023/09/14 06:56:38;;;;;;;1.07;1.00;;;;;;;13.37;64.96;102124.59;4897119;28;97158;-54
2023/09/14 06:59:03;;;;;;;1.73;1.10;;;;;;;13.42;65.01;102128.69;4900657;28;96845;-54
2023/09/14 07:01:29;;;;;;;2.10;1.23;;;;;;;13.48;64.95;102135.09;4897931;28;101979;-54
2023/09/14 07:03:54;;;;;;;1.00;1.00;;;;;;;13.54;64.92;102138.72;4901294;28;97447;-54
2023/09/14 07:06:20;;;;;;;2.40;1.03;;;;;;;13.60;64.86;102142.34;4903595;28;97179;-55
2023/09/14 07:08:45;;;;;;;1.30;1.00;;;;;;;13.67;65.07;102143.97;4898833;28;105726;-54
2023/09/14 07:11:12;;;;;;;1.20;1.10;;;;;;;13.75;65.28;102132.03;4901982;28;97132;-54
2023/09/14 07:13:37;;;;;;;0.97;0.97;;;;;;;13.83;65.24;102132.41;4901268;28;96899;-54
2023/09/14 07:16:03;;;;;;;1.50;1.07;;;;;;;13.90;65.28;102132.78;4901669;28;97651;-54
2023/09/14 07:18:30;;;;;;;2.73;1.40;;;;;;;13.96;65.27;102130.84;4897223;28;96846;-54
2023/09/14 07:20:58;;;;;;;4.83;1.20;;;;;;;14.02;65.17;102126.16;4894242;28;97383;-54
2023/09/14 07:23:24;;;;;;;2.07;1.63;;;;;;;14.10;65.29;102129.31;4898640;28;97110;-54
2023/09/14 07:25:50;;;;;;;2.70;1.20;;;;;;;14.13;65.34;102145.69;4898379;28;96881;-54
2023/09/14 07:28:20;;;;;;;1.03;0.93;;;;;;;14.18;65.51;102133.19;4899692;28;96945;-54
2023/09/14 07:30:47;;;;;;;1.30;1.20;;;;;;;14.25;65.51;102141.88;4897398;28;97184;-54
2023/09/14 07:33:13;;;;;;;1.97;1.73;;;;;;;14.33;65.63;102145.00;4898366;28;97136;-54
2023/09/14 07:35:39;;;;;;;2.53;1.53;;;;;;;14.40;65.55;102144.63;4903197;28;97179;-54
2023/09/14 07:38:10;;;;;;;4.80;1.33;;;;;;;14.49;65.65;102143.72;4899151;28;97102;-54
2023/09/14 07:40:37;;;;;;;1.43;1.30;;;;;;;14.57;65.79;102156.69;4898567;28;97038;-54
2023/09/14 07:43:02;;;;;;;2.50;1.50;;;;;;;14.62;65.74;102161.53;4898581;28;96775;-54
2023/09/14 07:45:33;;;;;;;1.80;1.27;;;;;;;14.72;65.84;102168.47;4899862;28;96945;-54
2023/09/14 07:48:01;;;;;;;2.40;1.37;;;;;;;14.81;65.77;102167.56;4899597;28;97262;-54
2023/09/14 07:50:26;;;;;;;6.27;1.70;;;;;;;14.87;65.86;102169.16;4900774;28;96744;-55
2023/09/14 07:52:51;;;;;;;3.87;1.30;;;;;;;14.97;65.78;102167.78;4904687;28;97507;-54
2023/09/14 07:55:17;;;;;;;2.90;1.30;;;;;;;15.06;65.74;102166.88;4906847;28;97246;-54
2023/09/14 07:57:42;;;;;;;5.10;1.87;;;;;;;15.16;65.75;102168.25;4898702;28;97482;-54
2023/09/14 08:00:08;;;;;;;3.90;1.60;;;;;;;15.26;65.84;102168.84;4899484;28;96962;-54
2023/09/14 08:02:35;;;;;;;5.10;1.70;;;;;;;15.35;65.85;102171.47;4898432;28;96997;-54
2023/09/14 08:05:00;;;;;;;4.50;1.53;;;;;;;15.43;65.86;102164.25;4900462;28;97047;-54
2023/09/14 08:07:27;;;;;;;3.33;1.50;;;;;;;15.52;65.86;102172.44;4898817;28;96718;-54
2023/09/14 08:09:52;;;;;;;1.87;1.20;;;;;;;15.59;65.90;102180.34;4899574;28;97544;-54
2023/09/14 08:12:18;;;;;;;5.07;1.60;;;;;;;15.68;65.80;102172.59;4903268;28;97448;-54
2023/09/14 08:14:43;;;;;;;1.03;0.67;;;;;;;15.79;65.89;102177.50;4899484;28;96893;-54
2023/09/14 08:17:08;;;;;;;1.40;1.00;;;;;;;15.89;65.88;102183.63;4900461;28;97507;-54
2023/09/14 08:19:34;;;;;;;1.33;1.13;;;;;;;15.97;65.86;102184.69;4898059;28;97978;-54
2023/09/14 08:21:59;;;;;;;2.27;1.40;;;;;;;16.09;66.12;102191.84;4899258;28;96810;-54
2023/09/14 08:24:25;;;;;;;5.50;1.40;;;;;;;16.21;65.85;102176.78;4898453;28;97998;-54
2023/09/14 08:26:51;;;;;;;2.47;1.30;;;;;;;16.32;65.88;102182.41;4904239;28;97258;-54
2023/09/14 08:29:16;;;;;;;4.03;1.00;;;;;;;16.43;65.60;102180.47;4901013;28;97434;-54
2023/09/14 08:31:43;;;;;;;2.67;1.00;;;;;;;16.56;65.83;102191.19;4902970;28;96712;-54
2023/09/14 08:34:09;;;;;;;2.70;1.20;;;;;;;16.65;65.68;102182.66;4903297;28;97034;-54
2023/09/14 08:36:34;;;;;;;2.57;1.20;;;;;;;16.79;65.52;102178.19;4899754;28;97479;-54
2023/09/14 08:39:00;;;;;;;1.17;0.60;;;;;;;16.93;65.44;102182.78;4899829;28;98697;-54
2023/09/14 08:41:32;;;;;;;4.43;1.17;;;;;;;17.07;65.20;102190.94;4900899;28;101353;-54
2023/09/14 08:43:58;;;;;;;1.73;1.10;;;;;;;17.19;65.11;102186.16;4901801;28;96946;-56
2023/09/14 08:46:24;;;;;;;0.90;0.60;;;;;;;17.28;65.23;102185.94;4897635;28;96820;-56
2023/09/14 08:48:52;;;;;;;3.80;0.83;;;;;;;17.38;65.10;102192.81;4898856;28;96628;-55
2023/09/14 08:51:18;;;;;;;6.10;0.93;;;;;;;17.53;65.11;102195.38;4898695;28;97118;-55
2023/09/14 08:53:44;;;;;;;2.60;1.00;;;;;;;17.63;64.98;102196.66;4890611;28;96791;-56
2023/09/14 08:56:12;;;;;;;1.70;1.13;;;;;;;17.75;65.10;102198.97;4896979;28;96635;-56
2023/09/14 08:58:39;;;;;;;4.80;1.07;;;;;;;17.86;65.16;102206.56;4899381;28;97640;-55
2023/09/14 09:01:09;;;;;;;1.37;1.00;;;;;;;17.96;64.96;102199.47;4894105;28;97143;-56
2023/09/14 09:03:34;;;;;;;2.30;0.90;;;;;;;18.09;64.99;102201.72;4899371;28;96900;-56
2023/09/14 09:06:00;;;;;;;1.23;0.63;;;;;;;18.21;64.62;102206.03;4898021;28;102923;-56
2023/09/14 09:08:27;;;;;;;3.07;0.80;;;;;;;18.34;64.44;102201.47;4898003;28;97590;-56
2023/09/14 09:10:53;;;;;;;2.80;1.10;;;;;;;18.44;64.34;102199.97;4897366;28;97166;-56
2023/09/14 09:13:19;;;;;;;1.77;0.83;;;;;;;18.55;63.74;102196.38;4898355;28;97016;-56
2023/09/14 09:15:44;;;;;;;1.10;1.00;;;;;;;18.65;63.73;102192.06;4897788;28;98182;-56
2023/09/14 09:18:11;;;;;;;2.13;0.93;;;;;;;18.76;63.42;102194.06;4898945;28;97748;-55
2023/09/14 09:20:40;;;;;;;1.60;1.03;;;;;;;18.84;63.24;102190.22;4897366;28;96750;-56
2023/09/14 09:23:07;;;;;;;2.27;1.07;;;;;;;18.89;62.68;102192.22;4897749;28;97023;-56
2023/09/14 09:25:49;;;;;;;3.70;1.07;;;;;;;19.01;62.06;102202.06;4898298;28;97498;-55
2023/09/14 09:28:14;;;;;;;1.70;0.63;;;;;;;19.08;62.74;102186.81;4896389;28;96903;-56
2023/09/14 09:30:40;;;;;;;1.00;0.60;;;;;;;19.08;62.29;102186.81;4897665;28;97166;-56
2023/09/14 09:33:07;;;;;;;2.50;0.90;;;;;;;18.99;62.44;102190.66;4901329;28;97206;-56
2023/09/14 09:35:34;;;;;;;3.90;0.57;;;;;;;18.81;61.72;102182.88;4896333;28;97009;-56
2023/09/14 09:38:08;;;;;;;1.60;0.60;;;;;;;18.63;61.58;102194.59;4893555;28;100379;-56
2023/09/14 09:40:34;;;;;;;3.63;0.70;;;;;;;18.46;61.99;102197.41;4896995;28;97035;-56
2023/09/14 09:43:04;;;;;;;2.30;0.80;;;;;;;18.32;61.62;102192.09;4900359;28;97490;-56
2023/09/14 09:45:40;;;;;;;3.10;1.23;;;;;;;18.20;61.54;102196.16;4898605;28;97425;-56
2023/09/14 09:48:08;;;;;;;1.00;0.83;;;;;;;18.17;62.48;102195.16;4905003;28;98446;-56
2023/09/14 09:50:33;;;;;;;1.37;0.90;;;;;;;18.14;62.36;102190.59;4895288;28;96706;-56
2023/09/14 09:52:59;;;;;;;1.57;0.60;;;;;;;18.11;62.27;102188.81;4897163;28;96952;-55
2023/09/14 09:55:26;;;;;;;2.03;0.80;;;;;;;18.12;62.36;102189.59;4900555;28;97402;-56
2023/09/14 09:57:58;;;;;;;0.90;0.70;;;;;;;18.23;62.16;102189.56;4897307;28;97231;-55
2023/09/14 10:00:29;;;;;;;1.23;0.73;;;;;;;18.40;62.13;102188.28;4896708;28;97226;-56
2023/09/14 10:02:55;;;;;;;2.07;0.80;;;;;;;18.57;62.33;102179.91;4901123;28;97312;-56
2023/09/14 10:05:31;;;;;;;2.03;0.60;;;;;;;18.73;60.66;102179.09;4901635;28;97338;-56
2023/09/14 10:07:58;;;;;;;1.90;0.80;;;;;;;18.88;61.01;102173.97;4901968;28;98428;-56
2023/09/14 10:10:29;;;;;;;1.60;0.57;;;;;;;19.02;60.35;102172.91;4900682;28;97123;-56
2023/09/14 10:12:55;;;;;;;1.47;0.70;;;;;;;19.12;60.22;102170.56;4896471;28;97184;-56
2023/09/14 10:15:25;;;;;;;0.80;0.57;;;;;;;19.20;59.97;102166.69;4900397;28;97908;-56
2023/09/14 10:17:54;;;;;;;0.80;0.70;;;;;;;19.32;59.37;102170.19;4902488;28;97813;-56
2023/09/14 10:20:20;;;;;;;0.80;0.60;;;;;;;19.38;59.05;102170.94;4897830;28;97348;-56
2023/09/14 10:22:46;;;;;;;0.87;0.50;;;;;;;19.43;58.35;102168.13;4900083;28;96975;-56
2023/09/14 10:25:12;;;;;;;1.17;0.73;;;;;;;19.51;58.21;102175.94;4906799;28;97356;-55
2023/09/14 10:27:39;;;;;;;1.00;0.57;;;;;;;19.59;57.77;102174.13;4900457;28;97479;-55
2023/09/14 10:30:05;;;;;;;0.90;0.60;;;;;;;19.70;57.75;102176.81;4896545;28;96648;-56
2023/09/14 10:32:34;;;;;;;1.20;0.50;;;;;;;19.86;57.58;102175.91;4895287;28;96578;-56
2023/09/14 10:35:03;;;;;;;3.13;0.57;;;;;;;19.96;57.33;102168.75;4884954;28;97212;-56
2023/09/14 10:37:30;;;;;;;2.67;0.70;;;;;;;19.99;57.13;102173.25;4895979;28;97470;-56
2023/09/14 10:39:55;;;;;;;0.90;0.53;;;;;;;20.01;57.38;102179.84;4897194;28;97114;-56
2023/09/14 10:42:21;;;;;;;0.90;0.70;;;;;;;19.99;56.88;102173.25;4898709;28;96717;-56
2023/09/14 10:44:47;;;;;;;3.63;1.00;;;;;;;19.98;56.61;102166.19;4900537;28;96873;-56
2023/09/14 10:47:15;;;;;;;1.53;0.63;;;;;;;20.02;56.49;102170.19;4900198;28;97224;-56
2023/09/14 10:49:43;;;;;;;2.40;0.80;;;;;;;20.02;56.12;102166.66;4905476;28;97236;-56
2023/09/14 10:52:08;;;;;;;3.53;0.70;;;;;;;20.05;56.16;102165.63;4901104;28;97048;-55
2023/09/14 10:54:35;;;;;;;0.80;0.50;;;;;;;20.11;55.79;102164.28;4901411;28;97263;-55
2023/09/14 10:57:10;;;;;;;0.80;0.67;;;;;;;20.19;55.07;102165.22;4901392;28;97241;-56
2023/09/14 10:59:57;;;;;;;2.50;0.70;;;;;;;20.16;53.57;102160.66;4899934;28;96805;-55
2023/09/14 11:02:43;;;;;;;0.60;0.40;;;;;;;20.08;52.60;102156.16;4898436;28;97192;-56
2023/09/14 11:05:16;;;;;;;1.27;0.60;;;;;;;19.97;53.82;102162.63;4899754;28;97888;-56
2023/09/14 11:07:45;;;;;;;1.77;0.63;;;;;;;19.91;54.88;102163.94;4905788;28;97197;-56
2023/09/14 11:10:19;;;;;;;5.00;0.90;;;;;;;19.89;54.19;102149.75;4900232;28;97143;-55
2023/09/14 11:12:44;;;;;;;1.30;0.70;;;;;;;19.87;54.80;102155.09;4902011;28;96972;-55
2023/09/14 11:15:11;;;;;;;0.80;0.60;;;;;;;19.87;55.32;102163.47;4899503;28;97264;-56
2023/09/14 11:17:44;;;;;;;1.80;0.97;;;;;;;19.87;55.05;102160.69;4899450;28;97180;-56
2023/09/14 11:20:24;;;;;;;1.70;0.70;;;;;;;19.85;55.15;102152.84;4904847;28;96788;-55
2023/09/14 11:22:52;;;;;;;1.63;0.57;;;;;;;19.84;55.51;102151.31;4901981;28;97244;-55